• Join FlightAware (Why Join?)
  • Login
  • US Flag 
10:37PM EDT


 

Airport Tracker/Info


-or-


 

Live Flight TrackerFlight Track Log ✈ CTL13 ✈ 15-Apr-2013 ✈ KEYE - KMDW

Flight Track Log - Related Links

Times and Time Zones

All times are in EDT time to prevent confusion due to time zone crossing. See the CTL13 flight status page for this flight to view local times or setup timezone preferences in your user account.

Time Position Orientation Groundspeed Altitude Reporting Facility
EDT Latitude Longitude Course Direction KTS MPH feet Rate Location/Type
08:35PM 40.0667 -86.3167 360° North 154 177 2,500  Level Indianapolis TRACON
08:37PM 40.1093 -86.2634 44° Northeast  Level FlightAware Approximate
08:40PM 40.2253 -86.2350 66° East 145 167 4,000  Level Chicago Center
08:41PM 40.2711 -86.2375 358° North 159 183 4,000  Level Chicago Center
08:42PM 40.3144 -86.2536 344° North 167 192 4,000  Level Chicago Center
08:43PM 40.3658 -86.2700 346° North 179 206 4,000  Level Chicago Center
08:44PM 40.3677 -86.4870 13° North  Level Estimated
08:44PM 40.4133 -86.2919 341° North 185 213 4,000  Level Chicago Center
08:45PM 40.3859 -86.4340 66° East  Level FlightAware Approximate
08:45PM 40.4647 -86.3111 344° North 188 216 4,000  Level Chicago Center
08:46PM 40.5225 -86.3308 345° North 188 216 4,000  Level Chicago Center
08:46PM 40.5544 -86.3392 349° North 183 211 4,100  Climbing Chicago Center
08:48PM 40.6058 -86.3619 341° North 193 222 4,100  Level Chicago Center
08:49PM 40.6558 -86.3828 342° North 191 220 4,100 -60 Level Chicago Center
08:50PM 40.7069 -86.4031 343° North 191 220 4,000 -60 Descending Chicago Center
08:51PM 40.7675 -86.4283 342° North 191 220 4,000  Level Chicago Center
08:52PM 40.8128 -86.4492 341° North 192 221 4,000  Level Chicago Center
08:53PM 40.8728 -86.4764 341° North 191 220 4,000  Level Chicago Center
08:54PM 40.9244 -86.4975 343° North 194 223 4,000  Level Chicago Center
08:55PM 40.9719 -86.5172 343° North 194 223 4,000  Level Chicago Center
08:56PM 41.0231 -86.5383 343° North 192 221 4,000  Level Chicago Center
08:57PM 41.0747 -86.5589 343° North 193 222 4,100  Climbing Chicago Center
08:58PM 41.1350 -86.5811 344° North 190 219 4,100 -60 Level Chicago Center
08:59PM 41.1878 -86.5981 346° North 192 221 4,000  Descending Chicago Center
09:00PM 41.2131 -86.6436 306° West 164 189 4,100  Climbing Chicago Center
09:01PM 41.2328 -86.6978 296° West 162 186 4,100 -60 Level Chicago Center
09:02PM 41.2561 -86.7525 300° West 165 190 4,000 -60 Descending Chicago Center
09:03PM 41.2797 -86.8075 300° West 169 194 4,000  Level Chicago Center
09:04PM 41.3047 -86.8733 297° West 169 194 4,000  Level Chicago Center
09:05PM 41.3261 -86.9286 297° West 169 194 4,000  Level Chicago Center
09:06PM 41.3456 -86.9836 295° West 168 193 4,000  Level Chicago Center
09:07PM 41.3678 -87.0386 298° West 168 193 4,000  Level Chicago Center
09:08PM 41.3964 -87.0878 308° West 168 193 4,000  Level Chicago Center
09:09PM 41.4247 -87.1392 306° West 171 197 4,000  Level Chicago Center
09:10PM 41.4464 -87.2075 293° West 170 196 4,000  Level Chicago Center
09:11PM 41.4583 -87.2683 285° West 170 196 4,000  Level Chicago Center
09:12PM 41.4833 -87.3333 297° West 176 203 4,000  Level Chicago TRACON
09:13PM 41.5167 -87.3667 323° Northwest 166 191 4,000  Level Chicago TRACON
09:14PM 41.5500 -87.4167 312° West 164 189 4,000  Level Chicago TRACON
09:15PM 41.5500 -87.4667 270° West 165 190 4,000  Level Chicago TRACON
09:16PM 41.5833 -87.5000 323° Northwest 161 185 4,000  Level Chicago TRACON
09:17PM 41.6167 -87.5333 323° Northwest 165 190 4,000 60 Level Chicago TRACON
09:17PM 41.6294 -87.5358 352° North 162 186 4,100  Climbing Chicago Center
09:18PM 41.6628 -87.5775 317° Northwest 164 189 4,000 -540 Descending Chicago Center
09:19PM 41.6906 -87.6203 311° West 161 185 3,000 -960 Descending Chicago Center
09:20PM 41.7167 -87.6500 320° Northwest 134 154 2,500 -780 Descending Chicago TRACON
09:21PM 41.7333 -87.6833 304° West 122 140 1,800 -540 Descending Chicago TRACON
09:22PM 41.7500 -87.7000 323° Northwest 104 120 1,500 -480 Descending Chicago TRACON
09:23PM 41.7667 -87.7333 304° West 91 105 900 -600 Descending Chicago TRACON